createdAt,value
2022-08-05T00:04:56.889Z,47.52
2022-08-05T00:09:59.289Z,47.41
2022-08-05T00:15:54.313Z,47.32
2022-08-05T00:20:22.693Z,47.68
2022-08-05T00:25:45.329Z,47.52
2022-08-05T00:30:47.408Z,47.82
2022-08-05T00:36:15.977Z,47.65
2022-08-05T00:41:27.648Z,48.00
2022-08-05T00:46:53.918Z,48.03
2022-08-05T00:52:00.574Z,48.67
2022-08-05T00:57:02.186Z,48.68
2022-08-05T01:02:04.190Z,48.60
2022-08-05T01:07:06.067Z,48.42
2022-08-05T01:12:20.189Z,49.10
2022-08-05T01:17:30.587Z,48.96
2022-08-05T01:22:47.127Z,49.40
2022-08-05T01:28:13.252Z,49.22
2022-08-05T01:33:19.609Z,49.41
2022-08-05T01:38:26.840Z,49.92
2022-08-05T01:43:32.501Z,49.80
2022-08-05T01:48:36.779Z,50.45
2022-08-05T01:53:57.743Z,50.31
2022-08-05T01:59:04.805Z,50.96
2022-08-05T02:04:09.114Z,50.77
2022-08-05T02:09:12.360Z,51.00
2022-08-05T02:14:27.443Z,50.91
2022-08-05T02:19:35.854Z,51.00
2022-08-05T02:24:53.256Z,50.99
2022-08-05T02:29:58.582Z,50.75
2022-08-05T02:35:13.854Z,50.76
2022-08-05T02:40:17.403Z,50.60
2022-08-05T02:45:21.330Z,50.50
2022-08-05T02:50:26.869Z,50.90
2022-08-05T02:55:54.984Z,50.76
2022-08-05T03:00:58.825Z,50.82
2022-08-05T03:06:55.333Z,51.00
2022-08-05T03:11:55.744Z,50.76
2022-08-05T03:16:47.087Z,49.75
2022-08-05T03:21:50.153Z,49.47
2022-08-05T03:26:51.988Z,49.59
2022-08-05T03:31:57.122Z,50.00
2022-08-05T03:37:04.080Z,49.53
2022-08-05T03:42:05.877Z,50.26
2022-08-05T03:47:07.527Z,50.47
2022-08-05T03:52:48.980Z,50.01
2022-08-05T03:57:42.673Z,50.45
2022-08-05T04:02:58.344Z,49.96
2022-08-05T04:08:03.462Z,50.35
2022-08-05T04:13:08.147Z,50.47
2022-08-05T04:18:12.725Z,50.30
2022-08-05T04:24:05.719Z,51.71
2022-08-05T04:28:51.987Z,51.16
2022-08-05T04:34:18.783Z,51.07
2022-08-05T04:39:15.618Z,51.36
2022-08-05T04:44:21.450Z,50.47
2022-08-05T04:49:38.990Z,50.31
2022-08-05T04:54:53.042Z,49.43
2022-08-05T04:59:54.721Z,49.13
2022-08-05T05:05:01.940Z,49.58
2022-08-05T05:10:06.659Z,48.16
2022-08-05T05:15:10.739Z,47.32
2022-08-05T05:20:13.870Z,46.82
2022-08-05T05:25:16.670Z,47.12
2022-08-05T05:30:29.358Z,46.39
2022-08-05T05:35:38.029Z,46.18
2022-08-05T05:40:49.837Z,45.08
2022-08-05T05:45:53.149Z,44.67
2022-08-05T05:50:54.979Z,43.34
2022-08-05T05:56:00.720Z,43.54
2022-08-05T06:01:13.340Z,42.67
2022-08-05T06:06:19.882Z,41.17
2022-08-05T06:11:24.106Z,40.97
2022-08-05T06:16:30.695Z,39.32
2022-08-05T06:21:35.927Z,38.36
2022-08-05T06:26:51.078Z,37.86
2022-08-05T06:31:54.191Z,36.51
2022-08-05T06:36:58.277Z,35.50
2022-08-05T06:42:04.073Z,35.08
2022-08-05T06:47:06.701Z,34.97
2022-08-05T06:52:38.203Z,36.61
2022-08-05T06:58:03.468Z,38.71
2022-08-05T07:02:56.081Z,40.40
2022-08-05T07:07:57.973Z,41.36
2022-08-05T07:13:58.381Z,42.43
2022-08-05T07:18:47.737Z,42.98
2022-08-05T07:23:50.110Z,44.27
2022-08-05T07:28:53.966Z,44.80
2022-08-05T07:33:55.601Z,45.85
2022-08-05T07:39:03.960Z,47.37
2022-08-05T07:44:19.113Z,48.10
2022-08-05T07:49:21.289Z,46.44
2022-08-05T07:54:31.744Z,45.71
2022-08-05T07:59:40.363Z,46.27
2022-08-05T08:04:42.585Z,45.64
2022-08-05T08:09:48.113Z,46.35
2022-08-05T08:14:49.807Z,47.34
2022-08-05T08:20:43.729Z,47.23
2022-08-05T08:25:15.715Z,47.29
2022-08-05T08:30:32.726Z,47.13
2022-08-05T08:35:41.219Z,46.20
2022-08-05T08:40:50.413Z,47.35
2022-08-05T08:45:54.111Z,47.82
2022-08-05T08:51:23.283Z,46.97
2022-08-05T08:56:18.147Z,45.33
2022-08-05T09:01:19.974Z,44.73
2022-08-05T09:06:24.156Z,43.94
2022-08-05T09:11:52.205Z,43.45
2022-08-05T09:16:54.946Z,43.89
2022-08-05T09:22:22.686Z,42.94
2022-08-05T09:28:04.308Z,42.47
2022-08-05T09:33:01.399Z,41.94
2022-08-05T09:38:16.088Z,41.46
2022-08-05T09:43:40.710Z,39.57
2022-08-05T09:48:43.229Z,40.84
2022-08-05T09:54:08.556Z,40.92
2022-08-05T09:59:17.170Z,40.04
2022-08-05T10:04:19.159Z,40.14
2022-08-05T10:09:44.947Z,39.61
2022-08-05T10:14:46.927Z,40.00
2022-08-05T10:20:03.753Z,39.65
2022-08-05T10:25:11.080Z,37.39
2022-08-05T10:31:20.392Z,37.53
2022-08-05T10:35:43.819Z,37.84
2022-08-05T10:40:49.821Z,36.68
2022-08-05T10:45:58.803Z,37.01
2022-08-05T10:51:22.326Z,36.52
2022-08-05T10:56:36.608Z,36.64
2022-08-05T11:02:03.779Z,36.10
2022-08-05T11:07:06.865Z,34.95
2022-08-05T11:12:27.143Z,34.37
2022-08-05T11:17:57.905Z,34.18
2022-08-05T11:23:00.461Z,33.78
2022-08-05T11:28:17.079Z,33.13
2022-08-05T11:33:34.721Z,33.52
2022-08-05T11:38:51.254Z,32.94
2022-08-05T11:44:05.173Z,33.10
2022-08-05T11:49:15.962Z,32.81
2022-08-05T11:54:34.369Z,31.99
2022-08-05T11:59:49.422Z,31.65
2022-08-05T12:04:59.712Z,31.56
2022-08-05T12:10:09.296Z,31.86
2022-08-05T12:15:20.896Z,31.50
2022-08-05T12:20:41.348Z,31.30
2022-08-05T12:25:53.837Z,29.99
2022-08-05T12:31:02.325Z,32.53
2022-08-05T12:36:08.047Z,32.28
2022-08-05T12:41:13.923Z,31.60
2022-08-05T12:46:28.933Z,30.34
2022-08-05T12:52:10.329Z,30.02
2022-08-05T12:56:59.215Z,30.27
2022-08-05T13:02:09.797Z,29.21
2022-08-05T13:07:47.455Z,29.60
2022-08-05T13:12:57.266Z,29.24
2022-08-05T13:17:59.518Z,29.42
2022-08-05T13:23:01.232Z,29.92
2022-08-05T13:28:10.575Z,30.05
2022-08-05T13:33:14.355Z,29.02
2022-08-05T13:38:36.029Z,30.14
2022-08-05T13:43:43.990Z,29.71
2022-08-05T13:48:57.717Z,29.19
2022-08-05T13:54:01.046Z,29.83
2022-08-05T13:59:06.028Z,29.66
2022-08-05T14:04:40.203Z,29.43
2022-08-05T14:09:45.980Z,30.23
2022-08-05T14:14:48.721Z,29.33
2022-08-05T14:19:56.229Z,29.98
2022-08-05T14:25:02.210Z,29.94
2022-08-05T14:30:20.628Z,30.72
2022-08-05T14:35:22.896Z,30.51
2022-08-05T14:40:24.752Z,30.16
2022-08-05T14:45:26.386Z,30.00
2022-08-05T14:50:28.180Z,31.18
2022-08-05T14:55:39.592Z,31.02
2022-08-05T15:00:58.840Z,31.10
2022-08-05T15:06:12.889Z,31.29
2022-08-05T15:11:16.718Z,31.43
2022-08-05T15:16:18.438Z,31.33
2022-08-05T15:21:21.029Z,32.08
2022-08-05T15:26:31.683Z,32.07
2022-08-05T15:31:34.980Z,32.62
2022-08-05T15:36:36.859Z,32.59
2022-08-05T15:41:57.759Z,32.56
2022-08-05T15:47:04.355Z,32.69
2022-08-05T15:52:14.171Z,31.68
2022-08-05T15:57:19.735Z,31.52
2022-08-05T16:02:25.606Z,31.01
2022-08-05T16:07:30.621Z,31.30
2022-08-05T16:12:32.257Z,32.83
2022-08-05T16:17:33.952Z,32.80
2022-08-05T16:22:35.683Z,33.57
2022-08-05T16:28:01.001Z,34.06
2022-08-05T16:33:01.467Z,34.11
2022-08-05T16:38:24.654Z,34.72
2022-08-05T16:43:25.489Z,34.39
2022-08-05T16:48:33.925Z,35.15
2022-08-05T16:54:03.416Z,35.71
2022-08-05T16:59:11.108Z,36.24
2022-08-05T17:04:16.279Z,36.93
2022-08-05T17:09:20.534Z,37.90
2022-08-05T17:14:36.862Z,38.30
2022-08-05T17:19:39.486Z,38.41
2022-08-05T17:24:45.382Z,37.93
2022-08-05T17:29:59.741Z,37.40
2022-08-05T17:35:04.030Z,35.96
2022-08-05T17:40:10.297Z,36.24
2022-08-05T17:45:20.491Z,40.48
2022-08-05T17:50:29.005Z,42.37
2022-08-05T17:55:38.511Z,44.44
2022-08-05T18:00:47.549Z,46.06
2022-08-05T18:05:53.648Z,46.63
2022-08-05T18:10:55.990Z,48.34
2022-08-05T18:15:59.139Z,50.41
2022-08-05T18:21:00.884Z,52.44
2022-08-05T18:26:04.779Z,56.60
2022-08-05T18:31:07.189Z,59.42
2022-08-05T18:36:15.655Z,61.39
2022-08-05T18:41:57.641Z,63.82
2022-08-05T18:46:41.314Z,66.19
2022-08-05T18:52:09.061Z,67.63
2022-08-05T18:57:15.520Z,69.37
2022-08-05T19:02:37.996Z,70.02
2022-08-05T19:07:45.935Z,70.53
2022-08-05T19:12:48.816Z,71.33
2022-08-05T19:18:08.185Z,71.01
2022-08-05T19:24:03.774Z,73.27
2022-08-05T19:28:34.980Z,73.04
2022-08-05T19:33:38.091Z,74.18
2022-08-05T19:38:43.887Z,72.67
2022-08-05T19:44:05.506Z,72.02
2022-08-05T19:49:08.069Z,71.57
2022-08-05T19:54:22.802Z,71.78
2022-08-05T19:59:56.445Z,72.01
2022-08-05T20:04:58.959Z,68.94
2022-08-05T20:10:01.171Z,68.09
2022-08-05T20:15:02.847Z,67.33
2022-08-05T20:20:09.450Z,66.27
2022-08-05T20:25:12.619Z,66.13
2022-08-05T20:30:14.380Z,65.11
2022-08-05T20:35:19.937Z,65.60
2022-08-05T20:40:22.920Z,64.53
2022-08-05T20:45:55.801Z,62.92
2022-08-05T20:50:47.057Z,62.14
2022-08-05T20:56:07.204Z,61.31
2022-08-05T21:01:16.407Z,61.86
2022-08-05T21:06:28.519Z,62.44
2022-08-05T21:12:07.169Z,62.38
2022-08-05T21:16:52.852Z,61.88
2022-08-05T21:21:55.140Z,62.43
2022-08-05T21:26:58.713Z,61.82
2022-08-05T21:32:02.434Z,61.15
2022-08-05T21:37:05.042Z,60.94
2022-08-05T21:42:07.088Z,60.66
2022-08-05T21:47:55.753Z,59.46
2022-08-05T21:52:50.336Z,58.99
2022-08-05T21:57:52.017Z,58.28
2022-08-05T22:02:56.122Z,58.21
2022-08-05T22:07:59.581Z,58.39
2022-08-05T22:13:09.210Z,57.38
2022-08-05T22:18:25.977Z,58.88
2022-08-05T22:24:02.182Z,58.55
2022-08-05T22:29:05.755Z,59.42
2022-08-05T22:34:07.930Z,58.74
2022-08-05T22:39:12.842Z,57.46
2022-08-05T22:44:14.771Z,57.67
2022-08-05T22:49:45.991Z,58.51
2022-08-05T22:54:48.746Z,65.69
2022-08-05T22:59:54.159Z,70.39
2022-08-05T23:04:56.038Z,72.50
2022-08-05T23:10:01.490Z,73.60
2022-08-05T23:15:08.976Z,73.57
2022-08-05T23:20:17.894Z,74.36
2022-08-05T23:25:54.668Z,75.66
2022-08-05T23:30:43.445Z,76.48
2022-08-05T23:35:45.619Z,75.34
2022-08-05T23:40:50.165Z,77.29
2022-08-05T23:45:52.093Z,77.45
2022-08-05T23:50:53.703Z,76.00
2022-08-05T23:55:55.426Z,76.25
